Time;durP1;ratioP1;P1;durP2;ratioP2;P2;SDS_P1;SDS_P2;PMS_P1;PMS_P2;Temp;Humidity;BMP_temperature;BMP_pressure;BME280_temperature;BME280_humidity;BME280_pressure;Samples;Min_cycle;Max_cycle;Signal;HPM_P1;HPM_P2
2023/08/07 00:00:30;;;;;;;0.30;0.30;;;15.00;99.90;;;;;;5055736;28;20052;-74
2023/08/07 00:02:55;;;;;;;0.47;0.47;;;15.00;99.90;;;;;;5057057;28;20488;-73
2023/08/07 00:05:21;;;;;;;0.40;0.40;;;15.00;99.90;;;;;;5057045;28;20044;-73
2023/08/07 00:07:47;;;;;;;0.30;0.30;;;15.00;99.90;;;;;;5056982;28;20033;-73
2023/08/07 00:10:13;;;;;;;0.30;0.30;;;15.00;99.90;;;;;;5056916;28;20461;-73
2023/08/07 00:12:39;;;;;;;0.30;0.30;;;15.00;99.90;;;;;;5056905;28;20076;-73
2023/08/07 00:15:05;;;;;;;0.50;0.50;;;15.00;99.90;;;;;;5056684;28;20047;-73
2023/08/07 00:17:31;;;;;;;0.35;0.35;;;15.00;99.90;;;;;;5056947;28;20052;-73
2023/08/07 00:19:56;;;;;;;0.83;0.57;;;15.00;99.90;;;;;;5056764;28;20510;-73
2023/08/07 00:22:23;;;;;;;0.40;0.40;;;15.00;99.90;;;;;;5056711;28;20102;-73
2023/08/07 00:24:48;;;;;;;0.40;0.40;;;15.00;99.90;;;;;;5056729;28;20052;-73
2023/08/07 00:27:14;;;;;;;0.30;0.30;;;15.00;99.90;;;;;;5056567;28;20057;-73
2023/08/07 00:29:40;;;;;;;0.68;0.60;;;15.00;99.90;;;;;;5056294;28;20595;-73
2023/08/07 00:32:06;;;;;;;0.60;0.60;;;15.00;99.90;;;;;;5056512;28;20048;-73
2023/08/07 00:34:32;;;;;;;0.30;0.30;;;15.00;99.90;;;;;;5056468;28;20045;-73
2023/08/07 00:36:58;;;;;;;0.35;0.35;;;15.00;99.90;;;;;;5056380;28;20059;-73
2023/08/07 00:39:24;;;;;;;0.50;0.50;;;15.00;99.90;;;;;;5056344;28;20044;-73
2023/08/07 00:41:49;;;;;;;0.30;0.30;;;15.00;99.90;;;;;;5056350;28;20085;-73
2023/08/07 00:44:15;;;;;;;0.30;0.30;;;15.00;99.90;;;;;;5056337;28;20040;-73
2023/08/07 00:46:42;;;;;;;0.40;0.40;;;15.00;99.90;;;;;;5054733;28;20485;-73
2023/08/07 00:49:09;;;;;;;;;;;14.90;99.90;;;;;;5056588;28;20466;-73
2023/08/07 00:51:35;;;;;;;0.30;0.30;;;15.00;99.90;;;;;;5056072;28;19924;-72
2023/08/07 00:54:04;;;;;;;0.30;0.30;;;15.00;99.90;;;;;;5056080;28;20094;-73
2023/08/07 00:56:31;;;;;;;0.30;0.30;;;15.00;99.90;;;;;;5055735;28;20435;-73
2023/08/07 00:58:58;;;;;;;0.30;0.30;;;15.00;99.90;;;;;;5055808;28;20373;-73
2023/08/07 01:01:24;;;;;;;;;;;15.10;99.90;;;;;;5056415;28;20044;-73
2023/08/07 01:03:49;;;;;;;0.30;0.30;;;15.10;99.90;;;;;;5055873;28;19927;-73
2023/08/07 01:06:15;;;;;;;0.30;0.30;;;15.00;99.90;;;;;;5056400;28;20041;-73
2023/08/07 01:08:41;;;;;;;0.30;0.30;;;15.10;99.90;;;;;;5055806;28;20037;-73
2023/08/07 01:11:18;;;;;;;0.40;0.40;;;15.00;99.90;;;;;;5055499;28;20080;-73
2023/08/07 01:14:00;;;;;;;;;;;15.00;99.90;;;;;;5056049;28;20041;-72
2023/08/07 01:16:35;;;;;;;0.50;0.50;;;15.00;99.90;;;;;;5055631;28;19916;-72
2023/08/07 01:19:03;;;;;;;0.40;0.40;;;15.00;99.90;;;;;;5055552;28;20048;-72
2023/08/07 01:21:28;;;;;;;0.40;0.40;;;15.00;99.90;;;;;;5055746;28;20048;-72
2023/08/07 01:23:54;;;;;;;0.30;0.30;;;15.00;99.90;;;;;;5055634;28;20470;-72
2023/08/07 01:26:21;;;;;;;0.40;0.40;;;15.00;99.90;;;;;;5055408;28;20051;-73
2023/08/07 01:28:59;;;;;;;0.40;0.40;;;15.00;99.90;;;;;;5055445;28;20049;-73
2023/08/07 01:31:29;;;;;;;0.40;0.40;;;15.00;99.90;;;;;;5055468;28;20481;-73
2023/08/07 01:33:58;;;;;;;0.35;0.35;;;15.00;99.90;;;;;;5055402;28;20095;-73
2023/08/07 01:36:28;;;;;;;0.30;0.30;;;15.00;99.90;;;;;;5055258;28;20045;-72
2023/08/07 01:38:56;;;;;;;0.60;0.60;;;15.00;99.90;;;;;;5055094;28;20037;-73
2023/08/07 01:41:23;;;;;;;0.38;0.38;;;15.00;99.90;;;;;;5055574;28;20041;-74
2023/08/07 01:43:49;;;;;;;0.40;0.40;;;14.90;99.90;;;;;;5055687;28;20041;-73
2023/08/07 01:46:14;;;;;;;0.40;0.40;;;14.90;99.90;;;;;;5055080;28;20044;-73
2023/08/07 01:48:40;;;;;;;2.35;0.52;;;14.90;99.90;;;;;;5055180;28;20160;-73
2023/08/07 01:51:05;;;;;;;0.30;0.30;;;14.90;99.90;;;;;;5055007;28;20376;-73
2023/08/07 01:53:31;;;;;;;0.57;0.50;;;14.80;99.90;;;;;;5055007;28;20037;-72
2023/08/07 01:55:57;;;;;;;0.50;0.50;;;14.80;99.90;;;;;;5054946;28;20091;-73
2023/08/07 01:58:22;;;;;;;0.40;0.40;;;14.80;99.90;;;;;;5054771;28;20428;-73
2023/08/07 02:00:48;;;;;;;0.33;0.33;;;14.80;99.90;;;;;;5054839;28;20041;-73
2023/08/07 02:03:13;;;;;;;0.40;0.40;;;14.80;99.90;;;;;;5054768;28;20079;-73
2023/08/07 02:05:39;;;;;;;0.30;0.30;;;14.70;99.90;;;;;;5055086;28;20183;-73
2023/08/07 02:08:05;;;;;;;0.40;0.40;;;14.80;99.90;;;;;;5054674;28;20037;-74
2023/08/07 02:10:30;;;;;;;0.47;0.47;;;14.70;99.90;;;;;;5054678;28;20080;-73
2023/08/07 02:12:59;;;;;;;0.33;0.33;;;14.80;99.90;;;;;;5055244;28;20080;-73
2023/08/07 02:15:24;;;;;;;0.35;0.35;;;14.80;99.90;;;;;;5054585;28;20091;-73
2023/08/07 02:17:50;;;;;;;0.40;0.40;;;14.70;99.90;;;;;;5054615;28;20052;-73
2023/08/07 02:20:16;;;;;;;0.53;0.53;;;14.70;99.90;;;;;;5054430;28;20056;-73
2023/08/07 02:22:41;;;;;;;0.40;0.40;;;14.70;99.90;;;;;;5053629;28;20045;-73
2023/08/07 02:25:07;;;;;;;0.35;0.35;;;14.70;99.90;;;;;;5054602;28;20037;-74
2023/08/07 02:27:33;;;;;;;0.40;0.40;;;14.70;99.90;;;;;;5054602;28;20120;-73
2023/08/07 02:29:59;;;;;;;0.40;0.40;;;14.70;99.90;;;;;;5053970;28;20133;-73
2023/08/07 02:32:24;;;;;;;0.33;0.33;;;14.70;99.90;;;;;;5054318;28;20041;-74
2023/08/07 02:34:50;;;;;;;0.30;0.30;;;14.70;99.90;;;;;;5054174;28;20040;-74
2023/08/07 02:37:16;;;;;;;0.47;0.45;;;14.60;99.90;;;;;;5054068;28;20045;-73
2023/08/07 02:39:42;;;;;;;0.30;0.30;;;14.70;99.90;;;;;;5054048;28;20041;-74
2023/08/07 02:42:07;;;;;;;0.47;0.43;;;14.70;99.90;;;;;;5054429;28;20048;-74
2023/08/07 02:44:33;;;;;;;0.40;0.40;;;14.70;99.90;;;;;;5053932;28;20041;-73
2023/08/07 02:46:59;;;;;;;0.95;0.50;;;14.70;99.90;;;;;;5054293;28;20440;-74
2023/08/07 02:49:24;;;;;;;0.53;0.53;;;14.70;99.90;;;;;;5053706;28;20122;-73
2023/08/07 02:51:50;;;;;;;0.45;0.45;;;14.60;99.90;;;;;;5053817;28;20044;-73
2023/08/07 02:54:15;;;;;;;0.30;0.30;;;14.60;99.90;;;;;;5052671;28;20040;-74
2023/08/07 02:56:41;;;;;;;4.50;0.40;;;14.70;99.90;;;;;;5054100;28;20432;-73
2023/08/07 02:59:07;;;;;;;0.30;0.30;;;14.70;99.90;;;;;;5053719;28;20075;-73
2023/08/07 03:01:33;;;;;;;0.30;0.30;;;14.60;99.90;;;;;;5053704;28;20115;-73
2023/08/07 03:03:58;;;;;;;0.40;0.40;;;14.70;99.90;;;;;;5053772;28;20044;-73
2023/08/07 03:06:24;;;;;;;0.40;0.40;;;14.70;99.90;;;;;;5053657;28;20041;-73
2023/08/07 03:08:50;;;;;;;0.33;0.33;;;14.60;99.90;;;;;;5053661;28;20051;-73
2023/08/07 03:11:16;;;;;;;0.40;0.40;;;14.60;99.90;;;;;;5053696;28;20059;-73
2023/08/07 03:13:42;;;;;;;1.20;0.50;;;14.60;99.90;;;;;;5053966;28;20473;-73
2023/08/07 03:16:08;;;;;;;0.40;0.40;;;14.60;99.90;;;;;;5053434;28;20091;-72
2023/08/07 03:18:34;;;;;;;0.32;0.32;;;14.60;99.90;;;;;;5053553;28;20088;-73
2023/08/07 03:20:59;;;;;;;0.50;0.50;;;14.60;99.90;;;;;;5053565;28;20080;-73
2023/08/07 03:23:26;;;;;;;0.30;0.30;;;14.50;99.90;;;;;;5054007;28;20036;-73
2023/08/07 03:26:05;;;;;;;0.30;0.30;;;14.60;99.90;;;;;;5053568;28;20066;-73
2023/08/07 03:28:31;;;;;;;0.45;0.45;;;14.60;99.90;;;;;;5053787;28;20043;-73
2023/08/07 03:30:57;;;;;;;0.38;0.38;;;14.60;99.90;;;;;;5053417;28;20048;-73
2023/08/07 03:33:23;;;;;;;0.35;0.35;;;14.50;99.90;;;;;;5054536;28;20342;-73
2023/08/07 03:35:48;;;;;;;0.40;0.40;;;14.50;99.90;;;;;;5057485;28;20453;-73
2023/08/07 03:38:14;;;;;;;0.30;0.30;;;14.50;99.90;;;;;;5057372;28;20071;-74
2023/08/07 03:40:40;;;;;;;0.30;0.30;;;14.50;99.90;;;;;;5057463;28;20041;-73
2023/08/07 03:43:05;;;;;;;0.50;0.50;;;14.50;99.90;;;;;;5057472;28;20044;-73
2023/08/07 03:45:31;;;;;;;0.35;0.35;;;14.50;99.90;;;;;;5057279;28;20372;-73
2023/08/07 03:47:56;;;;;;;0.30;0.30;;;14.40;99.90;;;;;;5057373;28;20049;-72
2023/08/07 03:50:22;;;;;;;0.60;0.60;;;14.40;99.90;;;;;;5057239;28;20045;-73
2023/08/07 03:52:48;;;;;;;0.30;0.30;;;14.40;99.90;;;;;;5057746;28;20029;-73
2023/08/07 03:55:13;;;;;;;0.30;0.30;;;14.40;99.90;;;;;;5056961;28;20041;-73
2023/08/07 03:57:39;;;;;;;0.37;0.37;;;14.40;99.90;;;;;;5057555;28;20075;-73
2023/08/07 04:00:05;;;;;;;0.47;0.47;;;14.30;99.90;;;;;;5057129;28;20472;-73
2023/08/07 04:02:31;;;;;;;0.30;0.30;;;14.30;99.90;;;;;;5057232;28;20088;-73
2023/08/07 04:04:57;;;;;;;0.40;0.40;;;14.30;99.90;;;;;;5056783;28;20377;-73
2023/08/07 04:07:22;;;;;;;0.30;0.30;;;14.30;99.90;;;;;;5056739;28;20064;-73
2023/08/07 04:09:48;;;;;;;0.40;0.40;;;14.30;99.90;;;;;;5056919;28;20037;-72
2023/08/07 04:12:13;;;;;;;0.30;0.30;;;14.20;99.90;;;;;;5056870;28;20048;-73
2023/08/07 04:14:39;;;;;;;0.40;0.40;;;14.20;99.90;;;;;;5056743;28;20101;-72
2023/08/07 04:17:05;;;;;;;0.63;0.57;;;14.20;99.90;;;;;;5056347;28;20431;-73
2023/08/07 04:19:30;;;;;;;0.40;0.40;;;14.20;99.90;;;;;;5056443;28;20044;-73
2023/08/07 04:21:56;;;;;;;0.27;0.27;;;14.20;99.90;;;;;;5056605;28;20037;-73
2023/08/07 04:24:22;;;;;;;0.30;0.30;;;14.20;99.90;;;;;;5056688;28;20045;-72
2023/08/07 04:26:47;;;;;;;0.30;0.30;;;14.20;99.90;;;;;;5056581;28;20387;-73
2023/08/07 04:29:13;;;;;;;0.40;0.40;;;14.20;99.90;;;;;;5056500;28;20460;-73
2023/08/07 04:31:39;;;;;;;0.40;0.40;;;14.10;99.90;;;;;;5056401;28;20048;-74
2023/08/07 04:34:04;;;;;;;0.40;0.40;;;14.20;99.90;;;;;;5056317;28;20044;-72
2023/08/07 04:36:30;;;;;;;0.60;0.60;;;14.20;99.90;;;;;;5056250;28;20037;-73
2023/08/07 04:38:56;;;;;;;0.40;0.40;;;14.30;99.90;;;;;;5056323;28;20037;-73
2023/08/07 04:41:22;;;;;;;0.50;0.50;;;14.30;99.90;;;;;;5056137;28;20044;-71
2023/08/07 04:43:48;;;;;;;0.43;0.43;;;14.30;99.90;;;;;;5056268;28;20103;-72
2023/08/07 04:46:14;;;;;;;0.40;0.40;;;14.30;99.90;;;;;;5055463;28;20037;-71
2023/08/07 04:48:40;;;;;;;0.30;0.30;;;14.40;99.90;;;;;;5056247;28;20041;-72
2023/08/07 04:51:06;;;;;;;0.50;0.50;;;14.40;99.90;;;;;;5056027;28;20124;-71
2023/08/07 04:53:32;;;;;;;0.40;0.40;;;14.50;99.90;;;;;;5056082;28;20120;-71
2023/08/07 04:55:59;;;;;;;0.40;0.40;;;14.50;99.90;;;;;;5055987;28;20108;-70
2023/08/07 04:58:25;;;;;;;0.30;0.30;;;14.60;99.90;;;;;;5056161;28;20052;-73
2023/08/07 05:00:55;;;;;;;0.60;0.60;;;14.60;99.90;;;;;;5056387;28;20357;-72
2023/08/07 05:03:21;;;;;;;0.50;0.50;;;14.60;99.90;;;;;;5055897;28;20053;-73
2023/08/07 05:05:47;;;;;;;0.40;0.40;;;14.60;99.90;;;;;;5055860;28;20040;-72
2023/08/07 05:08:12;;;;;;;0.50;0.50;;;14.60;99.90;;;;;;5056262;28;20434;-72
2023/08/07 05:10:38;;;;;;;0.40;0.40;;;14.60;99.90;;;;;;5056352;28;20124;-71
2023/08/07 05:13:03;;;;;;;0.50;0.50;;;14.60;99.90;;;;;;5055941;28;20033;-71
2023/08/07 05:15:30;;;;;;;0.30;0.30;;;14.60;99.90;;;;;;5055583;28;20041;-71
2023/08/07 05:17:56;;;;;;;0.38;0.38;;;14.70;99.90;;;;;;5055490;28;20063;-73
2023/08/07 05:20:22;;;;;;;0.40;0.40;;;14.60;99.90;;;;;;5055580;28;20477;-72
2023/08/07 05:22:48;;;;;;;0.40;0.40;;;14.60;99.90;;;;;;5055568;28;20080;-72
2023/08/07 05:25:18;;;;;;;0.40;0.40;;;14.60;99.90;;;;;;5055322;28;20059;-72
2023/08/07 05:27:47;;;;;;;0.40;0.40;;;14.60;99.90;;;;;;5055387;28;20087;-71
2023/08/07 05:30:13;;;;;;;0.32;0.32;;;14.60;99.90;;;;;;5055330;28;20124;-72
2023/08/07 05:32:39;;;;;;;0.40;0.40;;;14.60;99.90;;;;;;5055481;28;20083;-72
2023/08/07 05:35:06;;;;;;;0.40;0.40;;;14.70;99.90;;;;;;5055355;28;20041;-72
2023/08/07 05:37:32;;;;;;;0.40;0.40;;;14.70;99.90;;;;;;5055181;28;20094;-72
2023/08/07 05:39:58;;;;;;;0.60;0.60;;;14.70;99.90;;;;;;5055491;28;20059;-74
2023/08/07 05:42:24;;;;;;;0.40;0.40;;;14.70;99.90;;;;;;5055292;28;20473;-74
2023/08/07 05:44:50;;;;;;;0.30;0.30;;;14.80;99.90;;;;;;5055446;28;20041;-73
2023/08/07 05:47:15;;;;;;;0.30;0.30;;;14.80;99.90;;;;;;5055152;28;20262;-72
2023/08/07 05:49:41;;;;;;;0.40;0.40;;;14.80;99.90;;;;;;5055081;28;20037;-71
2023/08/07 05:52:07;;;;;;;8.75;0.63;;;14.90;99.90;;;;;;5054150;28;20124;-72
2023/08/07 05:54:33;;;;;;;0.67;0.60;;;14.90;99.90;;;;;;5055061;28;20178;-72
2023/08/07 05:56:58;;;;;;;0.30;0.30;;;14.90;99.90;;;;;;5054124;28;20123;-72
2023/08/07 05:59:24;;;;;;;0.60;0.60;;;14.90;99.90;;;;;;5054963;28;20044;-71
2023/08/07 06:01:50;;;;;;;0.60;0.60;;;14.90;99.90;;;;;;5054858;28;20048;-72
2023/08/07 06:04:16;;;;;;;0.30;0.30;;;14.90;99.90;;;;;;5054725;28;20053;-72
2023/08/07 06:06:42;;;;;;;0.50;0.50;;;14.80;99.90;;;;;;5054764;28;20037;-71
2023/08/07 06:09:08;;;;;;;0.40;0.40;;;14.80;99.90;;;;;;5054774;28;20495;-71
2023/08/07 06:11:34;;;;;;;0.50;0.50;;;14.90;99.90;;;;;;5054722;28;20041;-70
2023/08/07 06:13:59;;;;;;;0.30;0.30;;;14.90;99.90;;;;;;5054771;28;20477;-73
2023/08/07 06:16:25;;;;;;;0.30;0.30;;;14.80;99.90;;;;;;5054415;28;20369;-72
2023/08/07 06:18:51;;;;;;;0.40;0.40;;;14.80;99.90;;;;;;5054442;28;20048;-73
2023/08/07 06:21:17;;;;;;;0.47;0.47;;;14.90;99.90;;;;;;5054923;28;20355;-70
2023/08/07 06:23:42;;;;;;;0.40;0.40;;;14.80;99.90;;;;;;5054422;28;20049;-72
2023/08/07 06:26:08;;;;;;;0.50;0.50;;;14.80;99.90;;;;;;5054391;28;20091;-72
2023/08/07 06:28:36;;;;;;;1.75;0.40;;;14.80;99.90;;;;;;5054343;28;20369;-70
2023/08/07 06:31:06;;;;;;;0.35;0.35;;;14.80;99.90;;;;;;5054239;28;20131;-72
2023/08/07 06:33:33;;;;;;;0.32;0.32;;;14.80;99.90;;;;;;5054206;28;20041;-70
2023/08/07 06:35:59;;;;;;;0.40;0.40;;;14.90;99.90;;;;;;5054264;28;20045;-71
2023/08/07 06:38:25;;;;;;;0.30;0.30;;;14.90;99.90;;;;;;5053875;28;20036;-72
2023/08/07 06:40:50;;;;;;;0.40;0.40;;;14.90;99.90;;;;;;5054557;28;20093;-74
2023/08/07 06:43:16;;;;;;;0.30;0.30;;;15.10;99.90;;;;;;5054368;28;20041;-76
2023/08/07 06:45:41;;;;;;;0.45;0.45;;;15.20;99.90;;;;;;5054052;28;20044;-75
2023/08/07 06:48:07;;;;;;;0.80;0.67;;;15.30;99.90;;;;;;5053607;28;20041;-72
2023/08/07 06:50:33;;;;;;;0.50;0.50;;;15.20;99.90;;;;;;5054679;28;20049;-76
2023/08/07 06:52:58;;;;;;;0.60;0.60;;;15.30;99.90;;;;;;5054372;28;20119;-77
2023/08/07 06:55:25;;;;;;;0.32;0.32;;;15.40;99.90;;;;;;5054023;28;20044;-76
2023/08/07 06:57:51;;;;;;;0.40;0.40;;;15.40;99.90;;;;;;5054086;28;20502;-73
2023/08/07 07:00:16;;;;;;;0.35;0.35;;;15.60;99.90;;;;;;5053862;28;20072;-81
2023/08/07 07:02:42;;;;;;;0.40;0.40;;;15.80;99.90;;;;;;5052792;28;20136;-75
2023/08/07 07:05:08;;;;;;;0.45;0.45;;;15.90;99.90;;;;;;5053817;28;20293;-70
2023/08/07 07:07:33;;;;;;;0.52;0.52;;;15.90;99.90;;;;;;5053766;28;20045;-70
2023/08/07 07:10:00;;;;;;;0.30;0.30;;;15.90;99.90;;;;;;5053768;28;20545;-71
2023/08/07 07:12:27;;;;;;;1.25;1.15;;;15.80;99.90;;;;;;5054161;28;20408;-73
2023/08/07 07:14:53;;;;;;;0.35;0.35;;;15.80;99.90;;;;;;5053639;28;20041;-69
2023/08/07 07:17:18;;;;;;;0.40;0.40;;;15.80;99.90;;;;;;5053698;28;20346;-71
2023/08/07 07:19:45;;;;;;;0.30;0.30;;;15.80;99.90;;;;;;5053703;28;20471;-71
2023/08/07 07:22:11;;;;;;;0.40;0.40;;;15.90;99.90;;;;;;5053423;28;20041;-74
2023/08/07 07:24:37;;;;;;;0.40;0.40;;;16.10;99.90;;;;;;5053784;28;20071;-75
2023/08/07 07:27:03;;;;;;;0.40;0.40;;;16.20;99.90;;;;;;5053922;28;20037;-77
2023/08/07 07:29:29;;;;;;;0.63;0.50;;;16.30;99.90;;;;;;5052200;28;20555;-76
2023/08/07 07:31:55;;;;;;;0.60;0.60;;;16.30;99.90;;;;;;5052182;28;20104;-75
2023/08/07 07:34:21;;;;;;;0.50;0.50;;;16.30;99.90;;;;;;5052869;28;20049;-75
2023/08/07 07:36:47;;;;;;;0.40;0.40;;;16.20;99.90;;;;;;5053088;28;20041;-75
2023/08/07 07:39:12;;;;;;;0.63;0.63;;;16.30;99.90;;;;;;5053085;28;20297;-75
2023/08/07 07:41:38;;;;;;;1.85;0.65;;;16.20;99.90;;;;;;5053126;28;20045;-73
2023/08/07 07:44:04;;;;;;;0.40;0.40;;;16.30;99.90;;;;;;5053172;28;20036;-73
2023/08/07 07:46:31;;;;;;;0.43;0.43;;;16.40;99.90;;;;;;5053148;28;20045;-73
2023/08/07 07:48:57;;;;;;;0.40;0.40;;;16.60;99.90;;;;;;5052678;28;20434;-73
2023/08/07 07:51:23;;;;;;;0.30;0.30;;;16.60;99.90;;;;;;5053041;28;20029;-74
2023/08/07 07:53:49;;;;;;;0.40;0.40;;;16.80;99.90;;;;;;5051624;28;20488;-74
2023/08/07 07:56:14;;;;;;;0.60;0.60;;;16.90;99.90;;;;;;5052986;28;20036;-73
2023/08/07 07:58:40;;;;;;;0.87;0.63;;;17.00;99.90;;;;;;5052683;28;20451;-73
2023/08/07 08:01:07;;;;;;;0.40;0.40;;;16.90;99.90;;;;;;5052678;28;20052;-74
2023/08/07 08:03:33;;;;;;;0.40;0.40;;;16.90;99.90;;;;;;5052921;28;20048;-73
2023/08/07 08:05:59;;;;;;;0.63;0.50;;;16.90;99.90;;;;;;5053157;28;20271;-73
2023/08/07 08:08:24;;;;;;;0.37;0.37;;;16.90;99.90;;;;;;5053151;28;20052;-73
2023/08/07 08:10:51;;;;;;;0.30;0.30;;;17.00;99.90;;;;;;5052719;28;20040;-72
2023/08/07 08:13:17;;;;;;;0.55;0.55;;;17.00;99.90;;;;;;5052349;28;20473;-72
2023/08/07 08:15:43;;;;;;;0.30;0.30;;;16.90;99.90;;;;;;5051726;28;20041;-72
2023/08/07 08:18:09;;;;;;;0.30;0.30;;;16.90;99.90;;;;;;5052920;28;20423;-73
2023/08/07 08:20:35;;;;;;;0.20;0.20;;;17.00;99.90;;;;;;5054068;28;20051;-74
2023/08/07 08:23:01;;;;;;;0.20;0.20;;;17.00;99.90;;;;;;5055120;28;20041;-74
2023/08/07 08:25:26;;;;;;;1.33;0.50;;;16.90;99.90;;;;;;5056501;28;20392;-74
2023/08/07 08:27:52;;;;;;;0.30;0.30;;;16.90;99.90;;;;;;5056301;28;20115;-74
2023/08/07 08:30:18;;;;;;;0.30;0.30;;;16.90;99.90;;;;;;5056404;28;20415;-74
2023/08/07 08:32:43;;;;;;;0.30;0.30;;;16.90;99.90;;;;;;5055768;28;20041;-74
2023/08/07 08:35:09;;;;;;;0.30;0.30;;;16.80;99.90;;;;;;5056271;28;20033;-75
2023/08/07 08:37:35;;;;;;;0.40;0.40;;;16.80;99.90;;;;;;5056109;28;20036;-72
2023/08/07 08:40:01;;;;;;;0.37;0.37;;;16.90;99.90;;;;;;5056303;28;20044;-75
2023/08/07 08:42:27;;;;;;;0.30;0.30;;;17.00;99.90;;;;;;5055373;28;20036;-77
2023/08/07 08:44:57;;;;;;;0.30;0.30;;;17.10;99.90;;;;;;5055610;28;20060;-75
2023/08/07 08:47:25;;;;;;;0.30;0.30;;;17.20;99.90;;;;;;5055626;28;20393;-74
2023/08/07 08:50:02;;;;;;;0.35;0.35;;;17.30;99.90;;;;;;5055898;28;20048;-73
2023/08/07 08:52:30;;;;;;;0.40;0.40;;;17.40;99.90;;;;;;5056377;28;20047;-72
2023/08/07 08:54:56;;;;;;;0.30;0.30;;;17.50;99.90;;;;;;5056040;28;20091;-73
2023/08/07 08:57:24;;;;;;;0.30;0.30;;;17.50;99.90;;;;;;5055494;28;20084;-72
2023/08/07 08:59:50;;;;;;;0.50;0.50;;;17.40;99.90;;;;;;5055778;28;20040;-73
2023/08/07 09:02:17;;;;;;;0.50;0.50;;;17.10;99.90;;;;;;5055824;28;20128;-73
2023/08/07 09:04:44;;;;;;;0.30;0.30;;;16.60;99.90;;;;;;5071286;28;20041;-72
2023/08/07 09:07:13;;;;;;;0.50;0.50;;;16.30;99.90;;;;;;5055555;28;20048;-72
2023/08/07 09:09:40;;;;;;;0.38;0.38;;;16.00;99.90;;;;;;5055666;28;20037;-71
2023/08/07 09:12:11;;;;;;;0.30;0.30;;;15.80;99.90;;;;;;5055492;28;20457;-72
2023/08/07 09:14:41;;;;;;;0.30;0.30;;;15.70;99.90;;;;;;5055485;28;20084;-72
2023/08/07 09:17:07;;;;;;;0.35;0.35;;;15.80;99.90;;;;;;5055323;28;20092;-72
2023/08/07 09:19:33;;;;;;;0.40;0.40;;;15.80;99.90;;;;;;5055969;28;20041;-72
2023/08/07 09:21:59;;;;;;;0.60;0.60;;;15.90;99.90;;;;;;5055773;28;20048;-72
2023/08/07 09:24:24;;;;;;;0.50;0.50;;;16.10;99.90;;;;;;5055626;28;20449;-72
2023/08/07 09:26:55;;;;;;;0.40;0.40;;;16.30;99.90;;;;;;5055133;28;20047;-72
2023/08/07 09:29:21;;;;;;;0.30;0.30;;;16.40;99.90;;;;;;5055008;28;20045;-74
2023/08/07 09:31:47;;;;;;;;;;;16.60;99.90;;;;;;5054877;28;20433;-74
2023/08/07 09:34:16;;;;;;;0.55;0.55;;;16.70;99.90;;;;;;5055115;28;19917;-73
2023/08/07 09:36:42;;;;;;;0.30;0.30;;;16.80;99.90;;;;;;5054872;28;20480;-72
2023/08/07 09:39:07;;;;;;;0.33;0.33;;;16.90;99.90;;;;;;5054850;28;20091;-73
2023/08/07 09:41:35;;;;;;;4.40;0.67;;;17.00;99.90;;;;;;5054760;28;20044;-75
2023/08/07 09:44:09;;;;;;;0.35;0.35;;;17.10;99.90;;;;;;5054732;28;20044;-73
2023/08/07 09:46:44;;;;;;;0.30;0.30;;;17.30;99.90;;;;;;5054853;28;20056;-74
2023/08/07 09:49:10;;;;;;;0.20;0.20;;;17.40;99.90;;;;;;5054388;28;20048;-74
2023/08/07 09:51:44;;;;;;;0.30;0.30;;;17.50;99.90;;;;;;5054549;28;20044;-73
2023/08/07 09:54:11;;;;;;;0.30;0.30;;;17.50;99.90;;;;;;5054448;28;20373;-75
2023/08/07 09:56:37;;;;;;;0.40;0.40;;;17.50;99.90;;;;;;5054495;28;20138;-75
2023/08/07 09:59:04;;;;;;;0.30;0.30;;;17.60;99.90;;;;;;5054434;28;20099;-73
2023/08/07 10:01:29;;;;;;;0.30;0.30;;;17.60;99.90;;;;;;5054514;28;20048;-74
2023/08/07 10:03:56;;;;;;;1.13;0.60;;;17.50;99.90;;;;;;5054514;28;20380;-74
2023/08/07 10:06:22;;;;;;;0.30;0.30;;;17.50;99.90;;;;;;5054691;28;20041;-70
2023/08/07 10:08:49;;;;;;;0.47;0.47;;;17.60;99.90;;;;;;5054172;28;20045;-70
2023/08/07 10:11:16;;;;;;;0.30;0.30;;;17.70;99.90;;;;;;5054047;28;20080;-73
2023/08/07 10:13:41;;;;;;;;;;;17.80;99.90;;;;;;5054730;28;20087;-75
2023/08/07 10:16:07;;;;;;;0.63;0.60;;;17.80;99.90;;;;;;5054399;28;19916;-74
2023/08/07 10:18:34;;;;;;;0.50;0.50;;;17.90;99.90;;;;;;5054079;28;20127;-74
2023/08/07 10:21:02;;;;;;;0.85;0.40;;;18.10;99.90;;;;;;5053756;28;20477;-74
2023/08/07 10:23:27;;;;;;;0.60;0.60;;;18.30;99.90;;;;;;5053758;28;20080;-73
2023/08/07 10:25:54;;;;;;;0.40;0.40;;;18.40;99.90;;;;;;5054038;28;20076;-75
2023/08/07 10:28:22;;;;;;;;;;;18.30;99.90;;;;;;5054663;28;20066;-73
2023/08/07 10:30:49;;;;;;;0.50;0.50;;;18.20;99.90;;;;;;5053986;28;19920;-75
2023/08/07 10:33:17;;;;;;;0.47;0.30;;;18.10;99.90;;;;;;5053777;28;20115;-74
2023/08/07 10:35:48;;;;;;;0.30;0.30;;;18.00;99.90;;;;;;5053928;28;20044;-75
2023/08/07 10:38:14;;;;;;;0.38;0.38;;;17.90;99.90;;;;;;5053335;28;20083;-74
2023/08/07 10:40:58;;;;;;;0.83;0.50;;;17.80;99.90;;;;;;5053754;28;20076;-74
2023/08/07 10:43:25;;;;;;;0.30;0.30;;;17.70;99.90;;;;;;5053025;28;20110;-73
2023/08/07 10:45:50;;;;;;;;;;;17.80;99.90;;;;;;5054295;28;20041;-73
2023/08/07 10:48:20;;;;;;;0.30;0.30;;;17.90;99.90;;;;;;5053723;28;19916;-73
2023/08/07 10:50:50;;;;;;;0.40;0.40;;;18.10;99.90;;;;;;5053213;28;20049;-72
2023/08/07 10:53:21;;;;;;;0.50;0.43;;;18.20;99.90;;;;;;5053551;28;20037;-72
2023/08/07 10:55:48;;;;;;;0.32;0.30;;;18.30;99.90;;;;;;5053693;28;20049;-71
2023/08/07 10:58:39;;;;;;;0.40;0.20;;;18.20;99.90;;;;;;5053490;28;20084;-73
2023/08/07 11:01:26;;;;;;;0.35;0.35;;;18.20;99.90;;;;;;5053458;28;20045;-74
2023/08/07 11:03:57;;;;;;;0.50;0.47;;;18.20;99.90;;;;;;5053469;28;20033;-74
2023/08/07 11:06:28;;;;;;;0.35;0.35;;;18.10;99.90;;;;;;5053763;28;20123;-72
2023/08/07 11:08:54;;;;;;;0.30;0.30;;;18.10;99.90;;;;;;5053312;28;20036;-72
2023/08/07 11:11:19;;;;;;;0.30;0.30;;;18.10;99.90;;;;;;5053211;28;20029;-74
2023/08/07 11:13:45;;;;;;;1.00;0.60;;;18.10;99.90;;;;;;5053311;28;20037;-74
2023/08/07 11:16:12;;;;;;;0.40;0.40;;;18.20;99.90;;;;;;5053790;28;20103;-75
2023/08/07 11:18:41;;;;;;;;;;;18.20;99.90;;;;;;5053383;28;20045;-73
2023/08/07 11:21:07;;;;;;;0.55;0.55;;;18.20;99.90;;;;;;5053003;28;19917;-75
2023/08/07 11:23:33;;;;;;;0.50;0.50;;;18.10;99.90;;;;;;5051937;28;20076;-74
2023/08/07 11:25:58;;;;;;;0.20;0.20;;;18.00;99.90;;;;;;5053159;28;20417;-74
2023/08/07 11:28:24;;;;;;;0.50;0.50;;;17.80;99.90;;;;;;5052943;28;20417;-73
2023/08/07 11:30:51;;;;;;;0.30;0.30;;;17.70;99.90;;;;;;5053132;28;20045;-73
2023/08/07 11:33:20;;;;;;;0.32;0.32;;;17.50;99.90;;;;;;5052730;28;20053;-73
2023/08/07 11:35:47;;;;;;;0.63;0.63;;;17.40;99.90;;;;;;5053143;28;20041;-74
2023/08/07 11:38:28;;;;;;;0.50;0.45;;;17.30;99.90;;;;;;5052954;28;20044;-74
2023/08/07 11:40:53;;;;;;;0.55;0.45;;;17.40;99.90;;;;;;5052708;28;20045;-74
2023/08/07 11:43:19;;;;;;;2.00;0.50;;;17.40;99.90;;;;;;5053069;28;20361;-74
2023/08/07 11:45:45;;;;;;;0.50;0.50;;;17.60;99.90;;;;;;5053005;28;20044;-73
2023/08/07 11:48:10;;;;;;;0.23;0.23;;;17.80;99.90;;;;;;5052727;28;20139;-74
2023/08/07 11:50:37;;;;;;;0.30;0.30;;;18.00;99.90;;;;;;5053164;28;20052;-73
2023/08/07 11:53:02;;;;;;;0.30;0.30;;;18.10;99.90;;;;;;5051549;28;20445;-74
2023/08/07 11:55:29;;;;;;;0.60;0.60;;;18.10;99.90;;;;;;5055227;28;20045;-74
2023/08/07 11:57:55;;;;;;;;;;;18.20;99.90;;;;;;5057095;28;20055;-74
2023/08/07 12:00:25;;;;;;;0.63;0.50;;;18.10;99.90;;;;;;5056949;28;20015;-73
2023/08/07 12:02:50;;;;;;;0.40;0.40;;;18.20;99.90;;;;;;5056930;28;20063;-74
2023/08/07 12:05:16;;;;;;;0.20;0.20;;;18.40;99.90;;;;;;5056222;28;20049;-74
2023/08/07 12:07:42;;;;;;;0.33;0.33;;;18.60;99.90;;;;;;5056801;28;20056;-73
2023/08/07 12:10:09;;;;;;;0.30;0.30;;;18.90;99.90;;;;;;5056288;28;20075;-73
2023/08/07 12:12:38;;;;;;;0.30;0.30;;;19.10;99.90;;;;;;5056722;28;20087;-73
2023/08/07 12:15:08;;;;;;;0.30;0.30;;;19.20;99.90;;;;;;5055932;28;20037;-74
2023/08/07 12:17:36;;;;;;;0.20;0.20;;;19.20;99.90;;;;;;5054782;28;21331;-76
2023/08/07 12:20:05;;;;;;;0.30;0.30;;;19.30;99.90;;;;;;5055960;28;20076;-76
2023/08/07 12:22:30;;;;;;;0.30;0.30;;;19.30;99.90;;;;;;5056317;28;20044;-75
2023/08/07 12:24:56;;;;;;;0.30;0.30;;;19.40;99.90;;;;;;5055469;28;20040;-74
2023/08/07 12:27:22;;;;;;;0.30;0.30;;;19.40;99.90;;;;;;5055553;28;20073;-74
2023/08/07 12:29:48;;;;;;;0.30;0.30;;;19.30;99.90;;;;;;5037787;28;20059;-75
2023/08/07 12:32:13;;;;;;;0.57;0.50;;;19.20;99.90;;;;;;5055921;28;20041;-75
2023/08/07 12:34:40;;;;;;;1.07;0.70;;;19.20;99.90;;;;;;5056138;28;20047;-75
2023/08/07 12:37:06;;;;;;;0.20;0.20;;;19.30;99.90;;;;;;5056040;28;20048;-75
2023/08/07 12:39:32;;;;;;;1.70;0.60;;;19.40;99.90;;;;;;5055676;28;20044;-75
2023/08/07 12:41:58;;;;;;;0.30;0.30;;;19.40;99.90;;;;;;5056328;28;20037;-73
2023/08/07 12:44:23;;;;;;;0.30;0.30;;;19.50;99.90;;;;;;5054920;28;20477;-76